Terminal Aerodrome Forecast
Issued by NWS Paducah, KY

Home | Current Version | Previous Version | Text Only | Print | Product List | Glossary On
Versions: 1 2 3 4 5 6 7 8 9 10 11 12 13 14 15 16 17 18 19 20 21 22 23 24
000
FTUS43 KPAH 192300
TAFPAH
TAF
KPAH 192320Z 2000/2024 03003KT P6SM SCT035 OVC080
     FM200700 05003KT P6SM OVC015
     FM201100 05002KT 4SM BR OVC008
     FM201500 05002KT 5SM BR SCT004 BKN012
     FM201800 06003KT P6SM BKN015
     FM202100 07003KT P6SM BKN050=

USA.gov is the U.S. government's official web portal to all federal, state and local government web resources and services.